Time;durP1;ratioP1;P1;durP2;ratioP2;P2;SDS_P1;SDS_P2;PMS_P1;PMS_P2;Temp;Humidity;BMP_temperature;BMP_pressure;BME280_temperature;BME280_humidity;BME280_pressure;Samples;Min_cycle;Max_cycle;Signal;HPM_P1;HPM_P2
2022/08/05 00:00:47;;;;;;;18.63;15.00;;;;;;;;;;5016362;28;20109;-66
2022/08/05 00:03:14;;;;;;;19.20;15.20;;;;;;;;;;5015823;28;20053;-66
2022/08/05 00:05:42;;;;;;;22.00;16.65;;;;;;;;;;5015696;28;20512;-66
2022/08/05 00:08:08;;;;;;;19.77;14.32;;;;;;;;;;5015135;28;20030;-67
2022/08/05 00:10:34;;;;;;;20.98;16.30;;;;;;;;;;5015726;28;20073;-67
2022/08/05 00:13:00;;;;;;;20.95;15.50;;;;;;;;;;5015378;28;20115;-65
2022/08/05 00:15:26;;;;;;;19.35;14.63;;;;;;;;;;5015327;28;20498;-66
2022/08/05 00:17:52;;;;;;;21.17;15.43;;;;;;;;;;5012872;28;20112;-66
2022/08/05 00:20:18;;;;;;;18.98;16.13;;;;;;;;;;5015627;28;20097;-65
2022/08/05 00:22:44;;;;;;;19.45;16.33;;;;;;;;;;5015321;28;20018;-66
2022/08/05 00:25:10;;;;;;;19.20;16.42;;;;;;;;;;5015682;28;20478;-66
2022/08/05 00:27:36;;;;;;;19.88;16.00;;;;;;;;;;5014711;28;20056;-66
2022/08/05 00:30:02;;;;;;;19.55;16.00;;;;;;;;;;5014115;28;20458;-67
2022/08/05 00:32:28;;;;;;;21.73;16.83;;;;;;;;;;5015041;28;20104;-66
2022/08/05 00:34:54;;;;;;;24.85;17.38;;;;;;;;;;5013594;28;20117;-66
2022/08/05 00:37:20;;;;;;;20.15;16.55;;;;;;;;;;5013127;28;20026;-66
2022/08/05 00:39:46;;;;;;;23.67;17.38;;;;;;;;;;5014868;28;20080;-65
2022/08/05 00:42:15;;;;;;;19.00;16.20;;;;;;;;;;5014733;28;20030;-65
2022/08/05 00:44:41;;;;;;;19.92;16.33;;;;;;;;;;5014797;28;20482;-66
2022/08/05 00:47:07;;;;;;;18.65;16.55;;;;;;;;;;5014904;28;20453;-67
2022/08/05 00:49:33;;;;;;;20.33;16.33;;;;;;;;;;5014432;28;20052;-66
2022/08/05 00:51:59;;;;;;;21.17;16.58;;;;;;;;;;5014752;28;20101;-66
2022/08/05 00:54:25;;;;;;;21.15;16.80;;;;;;;;;;5014544;28;20037;-66
2022/08/05 00:56:51;;;;;;;21.48;16.73;;;;;;;;;;5014368;28;20022;-66
2022/08/05 00:59:17;;;;;;;21.13;17.55;;;;;;;;;;5013717;28;20021;-65
2022/08/05 01:01:43;;;;;;;19.83;17.52;;;;;;;;;;5014213;28;20394;-66
2022/08/05 01:04:09;;;;;;;22.90;18.20;;;;;;;;;;5014366;28;20026;-66
2022/08/05 01:06:35;;;;;;;22.88;18.02;;;;;;;;;;5013387;28;20116;-66
2022/08/05 01:09:01;;;;;;;20.80;17.10;;;;;;;;;;5012472;28;20398;-66
2022/08/05 01:11:30;;;;;;;20.48;16.80;;;;;;;;;;5014785;28;20021;-65
2022/08/05 01:13:59;;;;;;;21.00;17.40;;;;;;;;;;5014437;28;20026;-66
2022/08/05 01:16:33;;;;;;;23.48;17.13;;;;;;;;;;5014267;28;20030;-66
2022/08/05 01:19:02;;;;;;;20.38;17.20;;;;;;;;;;5013513;28;20026;-65
2022/08/05 01:21:50;;;;;;;20.95;17.70;;;;;;;;;;5013060;28;20045;-66
2022/08/05 01:24:29;;;;;;;20.60;17.92;;;;;;;;;;5014452;28;20022;-66
2022/08/05 01:26:58;;;;;;;20.58;16.83;;;;;;;;;;5012870;28;20062;-66
2022/08/05 01:29:31;;;;;;;20.55;17.45;;;;;;;;;;5013370;28;20125;-66
2022/08/05 01:32:00;;;;;;;21.63;17.85;;;;;;;;;;5013553;28;20030;-66
2022/08/05 01:34:27;;;;;;;21.23;18.05;;;;;;;;;;5014199;28;20171;-66
2022/08/05 01:36:55;;;;;;;35.00;17.90;;;;;;;;;;5013776;28;20025;-66
2022/08/05 01:39:22;;;;;;;21.73;18.10;;;;;;;;;;5013453;28;20022;-68
2022/08/05 01:41:48;;;;;;;23.60;18.83;;;;;;;;;;5013883;28;20053;-66
2022/08/05 01:44:15;;;;;;;20.95;18.40;;;;;;;;;;5013863;28;20018;-67
2022/08/05 01:46:41;;;;;;;21.05;18.85;;;;;;;;;;5013893;28;20026;-65
2022/08/05 01:49:10;;;;;;;22.90;19.27;;;;;;;;;;5013018;28;20022;-65
2022/08/05 01:51:36;;;;;;;21.92;18.65;;;;;;;;;;5013718;28;20475;-65
2022/08/05 01:54:04;;;;;;;21.38;19.17;;;;;;;;;;5013619;28;20038;-66
2022/08/05 01:56:31;;;;;;;25.77;20.02;;;;;;;;;;5013580;28;20026;-66
2022/08/05 01:58:58;;;;;;;22.85;20.13;;;;;;;;;;5012821;28;20044;-67
2022/08/05 02:01:25;;;;;;;22.73;19.98;;;;;;;;;;5013600;28;20026;-66
2022/08/05 02:03:51;;;;;;;24.98;21.08;;;;;;;;;;5014722;28;20029;-67
2022/08/05 02:06:17;;;;;;;22.85;20.10;;;;;;;;;;5013558;28;20030;-65
2022/08/05 02:08:43;;;;;;;22.52;20.13;;;;;;;;;;5010229;28;20036;-65
2022/08/05 02:11:15;;;;;;;22.38;19.98;;;;;;;;;;5013168;28;20025;-66
2022/08/05 02:13:51;;;;;;;24.85;20.02;;;;;;;;;;5013325;28;20033;-66
2022/08/05 02:16:31;;;;;;;23.45;20.17;;;;;;;;;;5013322;28;20509;-66
2022/08/05 02:19:23;;;;;;;24.83;21.80;;;;;;;;;;5012341;28;20030;-67
2022/08/05 02:21:57;;;;;;;27.42;22.13;;;;;;;;;;5011949;28;20049;-67
2022/08/05 02:24:27;;;;;;;26.13;21.02;;;;;;;;;;5013204;28;20485;-67
2022/08/05 02:26:58;;;;;;;24.83;22.23;;;;;;;;;;5013033;28;20056;-68
2022/08/05 02:29:25;;;;;;;26.83;21.95;;;;;;;;;;5011877;28;20026;-66
2022/08/05 02:31:53;;;;;;;24.95;21.23;;;;;;;;;;5012655;28;20033;-67
2022/08/05 02:34:20;;;;;;;26.45;21.75;;;;;;;;;;5012905;28;20022;-65
2022/08/05 02:36:50;;;;;;;30.63;23.55;;;;;;;;;;5012946;28;20167;-65
2022/08/05 02:39:17;;;;;;;23.80;21.05;;;;;;;;;;5012150;28;20501;-65
2022/08/05 02:41:45;;;;;;;23.98;20.98;;;;;;;;;;5013148;28;20391;-67
2022/08/05 02:44:12;;;;;;;24.77;21.70;;;;;;;;;;5012873;28;20041;-66
2022/08/05 02:46:39;;;;;;;25.98;23.17;;;;;;;;;;5011772;28;20402;-67
2022/08/05 02:49:05;;;;;;;25.48;22.77;;;;;;;;;;5012059;28;20453;-67
2022/08/05 02:51:31;;;;;;;24.23;21.60;;;;;;;;;;5011811;28;20053;-67
2022/08/05 02:53:58;;;;;;;28.75;22.90;;;;;;;;;;5012975;28;20072;-67
2022/08/05 02:56:25;;;;;;;27.08;22.80;;;;;;;;;;5012942;28;20040;-67
2022/08/05 02:58:52;;;;;;;25.73;22.80;;;;;;;;;;5012203;28;20022;-67
2022/08/05 03:01:19;;;;;;;24.48;21.83;;;;;;;;;;5012730;28;20092;-67
2022/08/05 03:03:48;;;;;;;23.52;20.50;;;;;;;;;;5012618;28;20030;-67
2022/08/05 03:06:15;;;;;;;25.58;22.13;;;;;;;;;;5012593;28;20529;-66
2022/08/05 03:08:42;;;;;;;26.75;22.92;;;;;;;;;;5010825;28;20030;-66
2022/08/05 03:11:17;;;;;;;23.80;21.23;;;;;;;;;;5012700;28;20022;-67
2022/08/05 03:13:43;;;;;;;28.75;23.33;;;;;;;;;;5012582;28;20382;-67
2022/08/05 03:16:09;;;;;;;25.05;21.63;;;;;;;;;;5012768;28;20048;-66
2022/08/05 03:18:36;;;;;;;30.23;23.52;;;;;;;;;;5011703;28;20022;-65
2022/08/05 03:21:01;;;;;;;25.20;22.58;;;;;;;;;;5014582;28;20053;-66
2022/08/05 03:23:28;;;;;;;24.35;21.75;;;;;;;;;;5014440;28;20637;-66
2022/08/05 03:25:54;;;;;;;25.73;22.73;;;;;;;;;;5016275;28;20556;-66
2022/08/05 03:28:20;;;;;;;24.65;21.88;;;;;;;;;;5015690;28;20042;-66
2022/08/05 03:30:47;;;;;;;28.58;23.63;;;;;;;;;;5016148;28;20026;-65
2022/08/05 03:33:13;;;;;;;28.33;23.45;;;;;;;;;;5016167;28;20105;-66
2022/08/05 03:35:39;;;;;;;27.40;22.73;;;;;;;;;;5016286;28;20022;-67
2022/08/05 03:38:05;;;;;;;25.83;22.10;;;;;;;;;;5015423;28;20026;-66
2022/08/05 03:40:31;;;;;;;25.60;21.90;;;;;;;;;;5016072;28;20041;-66
2022/08/05 03:42:57;;;;;;;25.55;22.65;;;;;;;;;;5015955;28;20553;-66
2022/08/05 03:45:23;;;;;;;25.08;21.42;;;;;;;;;;5015998;28;20032;-65
2022/08/05 03:47:50;;;;;;;26.48;22.27;;;;;;;;;;5015148;28;20033;-66
2022/08/05 03:50:16;;;;;;;26.77;23.05;;;;;;;;;;5015544;28;20045;-66
2022/08/05 03:53:04;;;;;;;27.27;24.30;;;;;;;;;;5016019;28;20026;-66
2022/08/05 03:55:33;;;;;;;25.73;22.90;;;;;;;;;;5015894;28;20052;-66
2022/08/05 03:58:00;;;;;;;27.50;24.45;;;;;;;;;;5014823;28;20035;-67
2022/08/05 04:00:30;;;;;;;26.42;23.65;;;;;;;;;;5014460;28;20422;-67
2022/08/05 04:02:58;;;;;;;27.73;24.38;;;;;;;;;;5015603;28;20026;-66
2022/08/05 04:05:24;;;;;;;33.38;27.67;;;;;;;;;;5016093;28;20474;-66
2022/08/05 04:07:50;;;;;;;37.55;33.65;;;;;;;;;;5014760;28;20034;-67
2022/08/05 04:10:16;;;;;;;30.00;27.00;;;;;;;;;;5015213;28;20111;-67
2022/08/05 04:12:43;;;;;;;30.52;26.45;;;;;;;;;;5015367;28;20041;-66
2022/08/05 04:15:10;;;;;;;32.60;26.98;;;;;;;;;;5015538;28;20044;-67
2022/08/05 04:17:36;;;;;;;30.25;26.80;;;;;;;;;;5013945;28;20040;-66
2022/08/05 04:20:03;;;;;;;30.35;27.05;;;;;;;;;;5014049;28;20032;-67
2022/08/05 04:22:29;;;;;;;30.50;27.25;;;;;;;;;;5015243;28;20017;-66
2022/08/05 04:24:55;;;;;;;30.40;27.10;;;;;;;;;;5015212;28;20038;-66
2022/08/05 04:27:22;;;;;;;29.98;26.60;;;;;;;;;;5014330;28;20092;-67
2022/08/05 04:29:48;;;;;;;30.92;27.63;;;;;;;;;;5014328;28;20057;-68
2022/08/05 04:32:14;;;;;;;32.53;27.45;;;;;;;;;;5021025;28;20025;-67
2022/08/05 04:34:40;;;;;;;30.98;27.83;;;;;;;;;;5013934;28;20588;-67
2022/08/05 04:37:06;;;;;;;30.67;27.58;;;;;;;;;;5013635;28;20030;-67
2022/08/05 04:39:33;;;;;;;31.70;28.45;;;;;;;;;;5014429;28;20026;-68
2022/08/05 04:41:59;;;;;;;32.35;28.73;;;;;;;;;;5015234;28;20026;-68
2022/08/05 04:44:25;;;;;;;30.55;27.27;;;;;;;;;;5015113;28;20030;-67
2022/08/05 04:46:51;;;;;;;31.30;28.02;;;;;;;;;;5013487;28;20026;-67
2022/08/05 04:49:17;;;;;;;29.98;26.88;;;;;;;;;;5013772;28;20030;-68
2022/08/05 04:51:43;;;;;;;34.20;28.70;;;;;;;;;;5014640;28;20026;-67
2022/08/05 04:54:09;;;;;;;31.92;27.75;;;;;;;;;;5014402;28;20538;-67
2022/08/05 04:56:35;;;;;;;32.00;28.70;;;;;;;;;;5012571;28;20037;-67
2022/08/05 04:59:01;;;;;;;33.17;29.63;;;;;;;;;;5012524;28;20113;-67
2022/08/05 05:01:27;;;;;;;31.15;28.05;;;;;;;;;;5019726;28;20117;-68
2022/08/05 05:03:53;;;;;;;32.35;29.00;;;;;;;;;;5017865;28;20048;-67
2022/08/05 05:06:19;;;;;;;32.50;28.90;;;;;;;;;;5016410;28;20052;-67
2022/08/05 05:08:46;;;;;;;31.73;28.67;;;;;;;;;;5025836;28;20022;-67
2022/08/05 05:11:12;;;;;;;33.92;30.63;;;;;;;;;;5024926;28;20052;-67
2022/08/05 05:13:38;;;;;;;34.38;30.60;;;;;;;;;;5014238;28;20061;-67
2022/08/05 05:16:04;;;;;;;35.22;31.73;;;;;;;;;;5028205;28;20029;-67
2022/08/05 05:18:30;;;;;;;34.67;30.40;;;;;;;;;;5033566;28;20029;-67
2022/08/05 05:20:56;;;;;;;33.30;29.88;;;;;;;;;;5034366;28;20077;-67
2022/08/05 05:23:22;;;;;;;33.33;30.08;;;;;;;;;;5029979;28;20014;-67
2022/08/05 05:25:48;;;;;;;32.55;29.30;;;;;;;;;;5014700;28;20495;-67
2022/08/05 05:28:14;;;;;;;32.35;29.25;;;;;;;;;;5012462;28;20076;-67
2022/08/05 05:30:40;;;;;;;33.00;29.45;;;;;;;;;;5011890;28;20581;-67
2022/08/05 05:33:07;;;;;;;31.73;28.33;;;;;;;;;;5014062;28;20066;-67
2022/08/05 05:35:34;;;;;;;38.75;34.90;;;;;;;;;;5012879;28;20026;-67
2022/08/05 05:38:05;;;;;;;32.80;29.50;;;;;;;;;;5013651;28;20036;-67
2022/08/05 05:40:32;;;;;;;32.55;29.20;;;;;;;;;;5018278;28;20600;-67
2022/08/05 05:42:58;;;;;;;37.53;30.85;;;;;;;;;;5032877;28;20030;-67
2022/08/05 05:45:24;;;;;;;32.35;28.98;;;;;;;;;;5033425;28;20101;-66
2022/08/05 05:47:50;;;;;;;32.85;29.45;;;;;;;;;;5032823;28;20025;-67
2022/08/05 05:50:17;;;;;;;32.13;28.75;;;;;;;;;;5033377;28;20505;-67
2022/08/05 05:52:43;;;;;;;30.67;27.30;;;;;;;;;;5033755;28;20029;-67
2022/08/05 05:55:10;;;;;;;29.63;26.58;;;;;;;;;;5031891;28;20025;-67
2022/08/05 05:57:37;;;;;;;30.38;27.10;;;;;;;;;;5032604;28;20030;-67
2022/08/05 06:00:05;;;;;;;29.63;26.63;;;;;;;;;;5032833;28;20044;-67
2022/08/05 06:02:31;;;;;;;28.88;25.80;;;;;;;;;;5031880;28;20021;-67
2022/08/05 06:04:57;;;;;;;28.33;24.98;;;;;;;;;;5032911;28;20028;-67
2022/08/05 06:07:23;;;;;;;27.17;24.27;;;;;;;;;;5030874;28;20120;-69
2022/08/05 06:09:49;;;;;;;27.52;24.25;;;;;;;;;;5033043;28;20434;-68
2022/08/05 06:12:15;;;;;;;27.10;23.45;;;;;;;;;;5033081;28;20033;-67
2022/08/05 06:14:43;;;;;;;30.00;24.73;;;;;;;;;;5032424;28;20032;-67
2022/08/05 06:17:09;;;;;;;31.08;24.48;;;;;;;;;;5031948;28;20022;-67
2022/08/05 06:19:35;;;;;;;27.10;24.23;;;;;;;;;;5031237;28;20436;-67
2022/08/05 06:22:01;;;;;;;27.08;23.70;;;;;;;;;;5032584;28;20101;-67
2022/08/05 06:24:27;;;;;;;27.30;23.63;;;;;;;;;;5032645;28;20094;-67
2022/08/05 06:26:53;;;;;;;36.55;29.10;;;;;;;;;;5033005;28;20487;-67
2022/08/05 06:29:20;;;;;;;26.30;23.45;;;;;;;;;;5031947;28;20118;-67
2022/08/05 06:31:46;;;;;;;30.10;23.55;;;;;;;;;;5032751;28;20058;-68
2022/08/05 06:34:12;;;;;;;30.85;24.25;;;;;;;;;;5032469;28;20056;-67
2022/08/05 06:36:38;;;;;;;29.20;23.00;;;;;;;;;;5032632;28;20386;-67
2022/08/05 06:39:04;;;;;;;26.90;22.23;;;;;;;;;;5031808;28;20022;-67
2022/08/05 06:41:30;;;;;;;23.10;20.73;;;;;;;;;;5032648;28;20026;-67
2022/08/05 06:43:56;;;;;;;23.45;21.00;;;;;;;;;;5032670;28;20432;-67
2022/08/05 06:46:22;;;;;;;23.98;20.63;;;;;;;;;;5032692;28;20026;-68
2022/08/05 06:48:48;;;;;;;23.30;19.90;;;;;;;;;;5030541;28;20026;-67
2022/08/05 06:51:14;;;;;;;25.58;19.85;;;;;;;;;;5032398;28;20108;-67
2022/08/05 06:53:40;;;;;;;22.83;19.77;;;;;;;;;;5032294;28;20151;-67
2022/08/05 06:56:06;;;;;;;23.08;19.48;;;;;;;;;;5036418;28;20033;-67
2022/08/05 06:58:32;;;;;;;24.05;19.58;;;;;;;;;;5035779;28;20495;-67
2022/08/05 07:01:00;;;;;;;24.92;20.00;;;;;;;;;;5034885;28;20049;-69
2022/08/05 07:03:27;;;;;;;21.73;19.42;;;;;;;;;;5035278;28;20394;-67
2022/08/05 07:05:53;;;;;;;21.42;18.80;;;;;;;;;;5036312;28;20489;-68
2022/08/05 07:08:21;;;;;;;21.98;18.80;;;;;;;;;;5035414;28;20033;-68
2022/08/05 07:10:47;;;;;;;22.30;18.95;;;;;;;;;;5034501;28;20025;-68
2022/08/05 07:18:42;;;;;;;25.55;19.77;;;;;;;;;;5035448;28;20130;-67
2022/08/05 07:21:08;;;;;;;24.70;18.70;;;;;;;;;;5036081;28;20025;-67
2022/08/05 07:23:34;;;;;;;23.40;18.98;;;;;;;;;;5036325;28;20024;-67
2022/08/05 07:26:01;;;;;;;23.48;19.70;;;;;;;;;;5036164;28;20029;-67
2022/08/05 07:28:27;;;;;;;23.63;20.60;;;;;;;;;;5035388;28;20057;-68
2022/08/05 07:30:53;;;;;;;26.70;22.40;;;;;;;;;;5035721;28;20083;-67
2022/08/05 07:33:20;;;;;;;25.33;22.70;;;;;;;;;;5031138;28;20482;-67
2022/08/05 07:35:46;;;;;;;25.10;22.50;;;;;;;;;;5026224;28;20459;-67
2022/08/05 07:38:13;;;;;;;31.40;28.33;;;;;;;;;;5023876;28;20022;-68
2022/08/05 07:40:39;;;;;;;34.38;30.92;;;;;;;;;;5029397;28;20465;-67
2022/08/05 07:43:05;;;;;;;41.20;37.55;;;;;;;;;;5028645;28;20017;-67
2022/08/05 07:45:32;;;;;;;41.72;37.95;;;;;;;;;;5026701;28;20086;-67
2022/08/05 07:47:58;;;;;;;41.30;37.60;;;;;;;;;;5015168;28;20033;-67
2022/08/05 07:50:24;;;;;;;39.25;35.47;;;;;;;;;;5016235;28;20013;-67
2022/08/05 07:52:50;;;;;;;37.67;34.17;;;;;;;;;;5015867;28;20032;-67
2022/08/05 07:55:17;;;;;;;37.47;33.88;;;;;;;;;;5015326;28;20022;-67
2022/08/05 07:57:43;;;;;;;35.15;31.75;;;;;;;;;;5014165;28;20414;-67
2022/08/05 08:00:09;;;;;;;35.80;32.30;;;;;;;;;;5015784;28;20029;-71
2022/08/05 08:02:54;;;;;;;;;;;;;;;;;;;;;
2022/08/05 08:05:11;;;;;;;32.47;29.25;;;;;;;;;;5093122;22;20053;-66
2022/08/05 08:07:37;;;;;;;30.40;27.45;;;;;;;;;;5072848;28;20024;-66
2022/08/05 08:10:04;;;;;;;29.85;27.10;;;;;;;;;;5072799;28;20047;-66
2022/08/05 08:12:30;;;;;;;30.10;27.05;;;;;;;;;;5074158;28;20025;-68
2022/08/05 08:14:57;;;;;;;32.28;29.13;;;;;;;;;;5056111;28;20221;-65
2022/08/05 08:17:23;;;;;;;31.63;28.63;;;;;;;;;;5053061;28;20025;-65
2022/08/05 08:19:49;;;;;;;31.40;28.58;;;;;;;;;;5048792;28;20021;-66
2022/08/05 08:22:15;;;;;;;33.63;30.52;;;;;;;;;;5044576;28;20452;-66
2022/08/05 08:24:41;;;;;;;32.65;29.45;;;;;;;;;;5042217;28;20026;-66
2022/08/05 08:27:08;;;;;;;33.17;30.00;;;;;;;;;;5043351;28;20112;-66
2022/08/05 08:29:34;;;;;;;32.00;29.10;;;;;;;;;;5049244;28;20024;-65
2022/08/05 08:32:00;;;;;;;31.35;28.38;;;;;;;;;;5053642;28;20108;-65
2022/08/05 08:34:27;;;;;;;31.63;28.63;;;;;;;;;;5053501;28;20040;-64
2022/08/05 08:36:54;;;;;;;31.55;28.30;;;;;;;;;;5052146;28;20021;-62
2022/08/05 08:39:23;;;;;;;30.48;27.42;;;;;;;;;;5051663;28;20024;-64
2022/08/05 08:41:49;;;;;;;29.08;26.17;;;;;;;;;;5053502;28;20028;-63
2022/08/05 08:44:17;;;;;;;28.67;25.67;;;;;;;;;;5053400;28;20406;-65
2022/08/05 08:46:44;;;;;;;27.52;24.60;;;;;;;;;;5044953;28;20029;-64
2022/08/05 08:49:13;;;;;;;27.33;24.67;;;;;;;;;;5032655;28;20116;-63
2022/08/05 08:51:40;;;;;;;26.25;23.65;;;;;;;;;;5033388;28;20033;-64
2022/08/05 08:54:07;;;;;;;27.92;24.98;;;;;;;;;;5033296;28;20021;-61
2022/08/05 08:56:33;;;;;;;28.48;25.77;;;;;;;;;;5033214;28;20036;-64
2022/08/05 08:59:00;;;;;;;29.55;26.75;;;;;;;;;;5026038;28;20478;-64
2022/08/05 09:01:27;;;;;;;29.35;26.55;;;;;;;;;;5033170;28;20026;-64
2022/08/05 09:03:55;;;;;;;29.55;26.45;;;;;;;;;;5031526;28;20025;-63
2022/08/05 09:06:21;;;;;;;29.00;26.23;;;;;;;;;;5033109;28;20030;-63
2022/08/05 09:08:48;;;;;;;30.95;27.70;;;;;;;;;;5045300;28;20040;-65
2022/08/05 09:11:14;;;;;;;29.95;27.27;;;;;;;;;;5051493;28;20082;-63
2022/08/05 09:13:41;;;;;;;28.88;26.25;;;;;;;;;;5046328;28;20036;-63
2022/08/05 09:16:10;;;;;;;28.88;26.05;;;;;;;;;;5038814;28;20051;-64
2022/08/05 09:18:36;;;;;;;;;;;;;;;;;;5031350;28;20119;-64
2022/08/05 09:21:02;;;;;;;28.83;24.00;;;;;;;;;;5032902;28;19905;-64
2022/08/05 09:23:28;;;;;;;26.50;23.80;;;;;;;;;;5031314;28;20022;-63
2022/08/05 09:26:08;;;;;;;26.52;23.73;;;;;;;;;;5032542;28;20037;-64
2022/08/05 09:28:36;;;;;;;26.73;24.10;;;;;;;;;;5030465;28;20021;-63
2022/08/05 09:31:06;;;;;;;26.67;23.77;;;;;;;;;;5031260;28;20030;-64
2022/08/05 09:33:45;;;;;;;26.92;24.13;;;;;;;;;;5032730;28;20061;-63
2022/08/05 09:36:12;;;;;;;27.40;23.70;;;;;;;;;;5032412;28;20025;-64
2022/08/05 09:38:38;;;;;;;25.80;23.10;;;;;;;;;;5031616;28;20385;-64
2022/08/05 09:41:08;;;;;;;25.40;22.23;;;;;;;;;;5032836;28;20359;-64
2022/08/05 09:43:38;;;;;;;24.13;21.63;;;;;;;;;;5032338;28;20022;-63
2022/08/05 09:46:10;;;;;;;24.63;21.95;;;;;;;;;;5032091;28;20120;-63
2022/08/05 09:48:37;;;;;;;23.83;21.40;;;;;;;;;;5031655;28;20025;-65
2022/08/05 09:51:04;;;;;;;24.05;21.42;;;;;;;;;;5032262;28;20034;-64
2022/08/05 09:53:46;;;;;;;24.25;21.25;;;;;;;;;;5030916;28;20025;-65
2022/08/05 09:56:12;;;;;;;22.48;20.13;;;;;;;;;;5032188;28;20036;-66
2022/08/05 09:58:38;;;;;;;21.30;19.00;;;;;;;;;;5030215;28;20028;-66
2022/08/05 10:01:05;;;;;;;21.83;19.52;;;;;;;;;;5032217;28;20026;-66
2022/08/05 10:03:31;;;;;;;24.85;21.73;;;;;;;;;;5031749;28;20033;-64
2022/08/05 10:06:08;;;;;;;24.35;21.95;;;;;;;;;;5035936;28;20024;-64
2022/08/05 10:08:35;;;;;;;24.55;21.95;;;;;;;;;;5053138;28;20469;-61
2022/08/05 10:11:21;;;;;;;25.88;22.42;;;;;;;;;;5051750;28;20028;-64
2022/08/05 10:13:48;;;;;;;28.63;25.67;;;;;;;;;;5032709;28;20553;-66
2022/08/05 10:16:32;;;;;;;28.65;25.85;;;;;;;;;;5048307;28;20401;-64
2022/08/05 10:18:59;;;;;;;23.17;20.95;;;;;;;;;;5051039;28;20024;-66
2022/08/05 10:21:26;;;;;;;22.48;20.15;;;;;;;;;;5051627;28;20420;-64
2022/08/05 10:23:52;;;;;;;24.25;21.80;;;;;;;;;;5051573;28;20120;-64
2022/08/05 10:26:19;;;;;;;25.88;23.00;;;;;;;;;;5051253;28;20033;-65
2022/08/05 10:28:45;;;;;;;21.67;19.48;;;;;;;;;;5050416;28;20051;-66
2022/08/05 10:31:12;;;;;;;21.55;19.33;;;;;;;;;;5051555;28;20035;-65
2022/08/05 10:33:39;;;;;;;22.08;19.70;;;;;;;;;;5051417;28;20109;-65
2022/08/05 10:36:05;;;;;;;20.88;18.77;;;;;;;;;;5050896;28;20024;-66
2022/08/05 10:38:32;;;;;;;21.75;19.55;;;;;;;;;;5032882;28;20029;-65
2022/08/05 10:41:02;;;;;;;23.00;20.60;;;;;;;;;;5031360;28;20017;-64
2022/08/05 10:43:35;;;;;;;21.45;19.25;;;;;;;;;;5031314;28;20026;-64
2022/08/05 10:46:07;;;;;;;23.45;18.88;;;;;;;;;;5029683;28;20075;-65
2022/08/05 10:48:46;;;;;;;21.40;19.20;;;;;;;;;;5029022;28;20028;-65
2022/08/05 10:51:19;;;;;;;21.08;18.05;;;;;;;;;;5031328;28;20034;-65
2022/08/05 10:53:54;;;;;;;21.00;18.80;;;;;;;;;;5030657;28;20087;-66
2022/08/05 10:56:21;;;;;;;21.95;18.95;;;;;;;;;;5031358;28;20036;-64
2022/08/05 10:58:48;;;;;;;24.00;19.30;;;;;;;;;;5030768;28;20075;-61
2022/08/05 11:01:15;;;;;;;21.35;19.13;;;;;;;;;;5036384;28;20432;-64
2022/08/05 11:04:00;;;;;;;20.73;18.38;;;;;;;;;;5034293;28;20155;-63
2022/08/05 11:06:26;;;;;;;18.58;16.55;;;;;;;;;;5035482;28;20036;-63
2022/08/05 11:09:11;;;;;;;20.77;17.73;;;;;;;;;;5033345;28;20049;-64
2022/08/05 11:11:37;;;;;;;17.80;15.85;;;;;;;;;;5034762;28;20483;-63
2022/08/05 11:14:03;;;;;;;17.13;14.73;;;;;;;;;;5031369;28;20044;-62
2022/08/05 11:16:30;;;;;;;17.63;14.95;;;;;;;;;;5030758;28;20396;-60
2022/08/05 11:19:15;;;;;;;17.88;15.43;;;;;;;;;;5029606;28;20026;-63
2022/08/05 11:21:41;;;;;;;18.73;15.57;;;;;;;;;;5030342;28;20101;-60
2022/08/05 11:24:07;;;;;;;18.92;14.95;;;;;;;;;;5030799;28;20021;-61
2022/08/05 11:26:34;;;;;;;15.95;13.23;;;;;;;;;;5031514;28;20394;-60
2022/08/05 11:29:02;;;;;;;18.30;14.55;;;;;;;;;;5030544;28;20029;-61
2022/08/05 11:31:31;;;;;;;17.95;15.15;;;;;;;;;;5028848;28;20037;-61
2022/08/05 11:33:59;;;;;;;17.27;14.30;;;;;;;;;;5030577;28;20025;-61
2022/08/05 11:36:43;;;;;;;18.83;14.40;;;;;;;;;;5030769;28;20064;-61
2022/08/05 11:39:10;;;;;;;17.70;14.70;;;;;;;;;;5030186;28;20033;-60
2022/08/05 11:41:37;;;;;;;20.30;15.10;;;;;;;;;;5031902;28;20481;-61
2022/08/05 11:44:11;;;;;;;18.35;15.07;;;;;;;;;;5036025;28;20619;-62
2022/08/05 11:46:47;;;;;;;18.52;15.05;;;;;;;;;;5047346;28;20021;-59
2022/08/05 11:49:14;;;;;;;18.35;15.00;;;;;;;;;;5039245;28;20096;-59
2022/08/05 11:51:42;;;;;;;18.80;15.00;;;;;;;;;;5034130;28;20026;-59
2022/08/05 11:54:09;;;;;;;18.20;15.57;;;;;;;;;;5033981;28;20022;-61
2022/08/05 11:56:49;;;;;;;17.10;14.77;;;;;;;;;;5032992;28;20141;-61
2022/08/05 11:59:16;;;;;;;17.27;14.68;;;;;;;;;;5033679;28;20029;-57
2022/08/05 12:01:52;;;;;;;18.30;15.50;;;;;;;;;;5034123;28;20030;-62
2022/08/05 12:04:18;;;;;;;18.60;15.65;;;;;;;;;;5034163;28;20036;-67
2022/08/05 12:06:44;;;;;;;20.17;16.50;;;;;;;;;;5034160;28;20029;-68
2022/08/05 12:09:10;;;;;;;18.25;16.30;;;;;;;;;;5050435;28;20461;-64
2022/08/05 12:11:37;;;;;;;18.17;16.23;;;;;;;;;;5052548;28;20031;-63
2022/08/05 12:14:07;;;;;;;17.52;15.57;;;;;;;;;;5053865;28;20036;-64
2022/08/05 12:16:37;;;;;;;17.15;15.35;;;;;;;;;;5054078;28;20021;-64
2022/08/05 12:19:04;;;;;;;19.60;16.80;;;;;;;;;;5051696;28;20400;-61
2022/08/05 12:21:31;;;;;;;18.42;16.02;;;;;;;;;;5053574;28;20112;-63
2022/08/05 12:23:59;;;;;;;17.60;15.70;;;;;;;;;;5053595;28;20064;-64
2022/08/05 12:26:30;;;;;;;21.73;15.90;;;;;;;;;;5053934;28;20041;-64
2022/08/05 12:28:56;;;;;;;18.30;15.43;;;;;;;;;;5053346;28;20029;-65
2022/08/05 12:31:22;;;;;;;18.42;15.90;;;;;;;;;;5052173;28;20542;-64
2022/08/05 12:33:48;;;;;;;19.30;16.30;;;;;;;;;;5054049;28;20112;-68
2022/08/05 12:36:15;;;;;;;18.45;15.93;;;;;;;;;;5053638;28;20036;-67
2022/08/05 12:38:41;;;;;;;18.65;16.00;;;;;;;;;;5049431;28;20104;-67
2022/08/05 12:41:12;;;;;;;19.48;16.27;;;;;;;;;;5042567;28;20021;-66
2022/08/05 12:43:50;;;;;;;19.60;15.45;;;;;;;;;;5050951;28;20018;-65
2022/08/05 12:46:23;;;;;;;18.95;15.80;;;;;;;;;;5053967;28;20397;-63
2022/08/05 12:49:04;;;;;;;19.65;15.65;;;;;;;;;;5050061;28;20037;-68
2022/08/05 12:51:31;;;;;;;19.40;16.40;;;;;;;;;;5033413;28;20049;-64
2022/08/05 12:54:01;;;;;;;19.20;15.77;;;;;;;;;;5031288;28;20025;-65
2022/08/05 12:56:28;;;;;;;19.58;16.58;;;;;;;;;;5032544;28;20030;-64
2022/08/05 12:59:12;;;;;;;18.30;15.98;;;;;;;;;;5032411;28;20022;-64
2022/08/05 13:01:39;;;;;;;19.35;15.05;;;;;;;;;;5037684;28;20116;-62
2022/08/05 13:04:05;;;;;;;19.60;16.55;;;;;;;;;;5050402;28;20040;-63
2022/08/05 13:06:31;;;;;;;20.45;16.10;;;;;;;;;;5052305;28;20025;-64
2022/08/05 13:08:57;;;;;;;18.77;15.60;;;;;;;;;;5051912;28;20393;-65
2022/08/05 13:11:27;;;;;;;18.13;15.70;;;;;;;;;;5052795;28;20017;-63
2022/08/05 13:13:56;;;;;;;17.77;15.88;;;;;;;;;;5052815;28;20393;-63
2022/08/05 13:16:22;;;;;;;18.45;16.45;;;;;;;;;;5052910;28;20025;-63
2022/08/05 13:18:52;;;;;;;19.75;16.52;;;;;;;;;;5044481;28;20405;-64
2022/08/05 13:21:18;;;;;;;19.20;16.08;;;;;;;;;;5032680;28;20021;-64
2022/08/05 13:23:43;;;;;;;18.52;15.93;;;;;;;;;;5031528;28;20071;-64
2022/08/05 13:26:09;;;;;;;19.00;15.50;;;;;;;;;;5032708;28;20057;-64
2022/08/05 13:28:35;;;;;;;17.75;15.18;;;;;;;;;;4684886;28;9999591;-64
2022/08/05 13:31:01;;;;;;;21.40;15.90;;;;;;;;;;5037703;28;20499;-63
2022/08/05 13:33:27;;;;;;;22.92;15.73;;;;;;;;;;5047448;28;20033;-64
2022/08/05 13:35:54;;;;;;;18.42;14.77;;;;;;;;;;5029779;28;20409;-64
2022/08/05 13:38:20;;;;;;;20.20;15.48;;;;;;;;;;5035951;28;20090;-62
2022/08/05 13:40:46;;;;;;;17.40;15.32;;;;;;;;;;5048997;28;20021;-64
2022/08/05 13:43:12;;;;;;;19.48;15.20;;;;;;;;;;5049301;28;20021;-64
2022/08/05 13:45:39;;;;;;;18.65;14.80;;;;;;;;;;5047670;28;20113;-65
2022/08/05 13:48:05;;;;;;;18.23;14.50;;;;;;;;;;5031500;28;20025;-64
2022/08/05 13:50:31;;;;;;;16.80;14.90;;;;;;;;;;5027616;28;20021;-65
2022/08/05 13:52:57;;;;;;;16.90;14.70;;;;;;;;;;5028973;28;20050;-63
2022/08/05 13:55:23;;;;;;;20.73;15.05;;;;;;;;;;5029004;28;20032;-63
2022/08/05 13:57:49;;;;;;;16.80;14.68;;;;;;;;;;5027925;28;20119;-63
2022/08/05 14:00:15;;;;;;;16.13;14.30;;;;;;;;;;5028427;28;20036;-62
2022/08/05 14:02:41;;;;;;;16.77;14.27;;;;;;;;;;5028912;28;20029;-61
2022/08/05 14:05:10;;;;;;;16.58;14.23;;;;;;;;;;5050030;22;20045;-55
2022/08/05 14:07:38;;;;;;;16.42;13.80;;;;;;;;;;5026510;28;20091;-54
2022/08/05 14:10:05;;;;;;;17.38;14.00;;;;;;;;;;5029086;28;20029;-54
2022/08/05 14:12:31;;;;;;;18.00;14.23;;;;;;;;;;5028918;28;20049;-52
2022/08/05 14:14:57;;;;;;;16.38;14.05;;;;;;;;;;5028790;28;20032;-54
2022/08/05 14:17:25;;;;;;;16.35;13.82;;;;;;;;;;5028302;28;20040;-57
2022/08/05 14:19:51;;;;;;;16.42;13.93;;;;;;;;;;5010264;28;20056;-60
2022/08/05 14:22:17;;;;;;;17.13;14.00;;;;;;;;;;5008599;28;20026;-55
2022/08/05 14:24:43;;;;;;;17.63;14.20;;;;;;;;;;5009689;28;20038;-60
2022/08/05 14:27:09;;;;;;;16.38;13.95;;;;;;;;;;5008969;28;20072;-58